sensor_id;sensor_type;location;lat;lon;timestamp;temperature;humidity
79760;DHT22;70512;42.122;24.732;2023-12-20T00:01:07;4.50;91.20
79760;DHT22;70512;42.122;24.732;2023-12-20T00:03:33;4.50;91.00
79760;DHT22;70512;42.122;24.732;2023-12-20T00:06:00;4.50;90.90
79760;DHT22;70512;42.122;24.732;2023-12-20T00:08:27;4.60;90.80
79760;DHT22;70512;42.122;24.732;2023-12-20T00:10:54;4.60;90.80
79760;DHT22;70512;42.122;24.732;2023-12-20T00:13:21;4.60;90.90
79760;DHT22;70512;42.122;24.732;2023-12-20T00:15:48;4.60;90.80
79760;DHT22;70512;42.122;24.732;2023-12-20T00:18:14;4.60;90.80
79760;DHT22;70512;42.122;24.732;2023-12-20T00:20:41;4.60;90.70
79760;DHT22;70512;42.122;24.732;2023-12-20T00:23:08;4.60;90.70
79760;DHT22;70512;42.122;24.732;2023-12-20T00:25:35;4.50;90.80
79760;DHT22;70512;42.122;24.732;2023-12-20T00:28:02;4.50;91.00
79760;DHT22;70512;42.122;24.732;2023-12-20T00:30:29;4.50;91.10
79760;DHT22;70512;42.122;24.732;2023-12-20T00:32:56;4.40;91.50
79760;DHT22;70512;42.122;24.732;2023-12-20T00:35:23;4.20;91.40
79760;DHT22;70512;42.122;24.732;2023-12-20T00:37:50;4.10;91.60
79760;DHT22;70512;42.122;24.732;2023-12-20T00:40:17;4.00;91.80
79760;DHT22;70512;42.122;24.732;2023-12-20T00:42:44;4.00;91.90
79760;DHT22;70512;42.122;24.732;2023-12-20T00:45:12;3.90;92.00
79760;DHT22;70512;42.122;24.732;2023-12-20T00:47:40;3.80;92.40
79760;DHT22;70512;42.122;24.732;2023-12-20T00:50:07;3.70;92.70
79760;DHT22;70512;42.122;24.732;2023-12-20T00:52:34;3.80;92.70
79760;DHT22;70512;42.122;24.732;2023-12-20T00:55:01;3.90;92.40
79760;DHT22;70512;42.122;24.732;2023-12-20T00:57:29;3.90;92.10
79760;DHT22;70512;42.122;24.732;2023-12-20T00:59:57;4.00;92.20
79760;DHT22;70512;42.122;24.732;2023-12-20T01:02:24;3.90;92.30
79760;DHT22;70512;42.122;24.732;2023-12-20T01:04:50;3.80;92.20
79760;DHT22;70512;42.122;24.732;2023-12-20T01:07:17;3.80;92.10
79760;DHT22;70512;42.122;24.732;2023-12-20T01:09:44;3.80;92.10
79760;DHT22;70512;42.122;24.732;2023-12-20T01:12:13;3.80;92.00
79760;DHT22;70512;42.122;24.732;2023-12-20T01:14:40;3.80;91.90
79760;DHT22;70512;42.122;24.732;2023-12-20T01:17:09;3.80;91.90
79760;DHT22;70512;42.122;24.732;2023-12-20T01:19:36;3.90;91.80
79760;DHT22;70512;42.122;24.732;2023-12-20T01:22:03;3.90;91.70
79760;DHT22;70512;42.122;24.732;2023-12-20T01:24:30;3.90;91.60
79760;DHT22;70512;42.122;24.732;2023-12-20T01:26:57;3.80;91.70
79760;DHT22;70512;42.122;24.732;2023-12-20T01:29:24;3.70;92.00
79760;DHT22;70512;42.122;24.732;2023-12-20T01:31:56;3.70;92.00
79760;DHT22;70512;42.122;24.732;2023-12-20T01:34:19;3.80;91.80
79760;DHT22;70512;42.122;24.732;2023-12-20T01:36:46;3.80;91.70
79760;DHT22;70512;42.122;24.732;2023-12-20T01:39:13;3.80;91.70
79760;DHT22;70512;42.122;24.732;2023-12-20T01:41:40;3.80;91.60
79760;DHT22;70512;42.122;24.732;2023-12-20T01:44:07;3.80;91.60
79760;DHT22;70512;42.122;24.732;2023-12-20T01:46:34;3.80;92.10
79760;DHT22;70512;42.122;24.732;2023-12-20T01:49:01;3.90;91.80
79760;DHT22;70512;42.122;24.732;2023-12-20T01:51:33;4.00;91.50
79760;DHT22;70512;42.122;24.732;2023-12-20T01:53:58;3.90;91.30
79760;DHT22;70512;42.122;24.732;2023-12-20T01:56:26;4.00;91.50
79760;DHT22;70512;42.122;24.732;2023-12-20T01:58:53;4.00;91.60
79760;DHT22;70512;42.122;24.732;2023-12-20T02:01:20;4.00;91.60
79760;DHT22;70512;42.122;24.732;2023-12-20T02:03:47;3.90;91.60
79760;DHT22;70512;42.122;24.732;2023-12-20T02:06:14;3.90;91.50
79760;DHT22;70512;42.122;24.732;2023-12-20T02:08:41;3.90;91.50
79760;DHT22;70512;42.122;24.732;2023-12-20T02:11:08;3.90;91.50
79760;DHT22;70512;42.122;24.732;2023-12-20T02:13:35;3.80;91.40
79760;DHT22;70512;42.122;24.732;2023-12-20T02:16:02;3.80;91.50
79760;DHT22;70512;42.122;24.732;2023-12-20T02:18:29;3.80;91.50
79760;DHT22;70512;42.122;24.732;2023-12-20T02:20:55;3.70;91.50
79760;DHT22;70512;42.122;24.732;2023-12-20T02:23:22;3.70;91.60
79760;DHT22;70512;42.122;24.732;2023-12-20T02:25:49;3.80;91.50
79760;DHT22;70512;42.122;24.732;2023-12-20T02:28:16;3.80;91.60
79760;DHT22;70512;42.122;24.732;2023-12-20T02:30:43;3.80;91.50
79760;DHT22;70512;42.122;24.732;2023-12-20T02:33:10;3.70;91.60
79760;DHT22;70512;42.122;24.732;2023-12-20T02:35:37;3.60;92.10
79760;DHT22;70512;42.122;24.732;2023-12-20T02:38:04;3.50;91.90
79760;DHT22;70512;42.122;24.732;2023-12-20T02:40:31;3.60;92.00
79760;DHT22;70512;42.122;24.732;2023-12-20T02:42:58;3.60;91.80
79760;DHT22;70512;42.122;24.732;2023-12-20T02:45:26;3.60;91.70
79760;DHT22;70512;42.122;24.732;2023-12-20T02:47:53;3.70;91.60
79760;DHT22;70512;42.122;24.732;2023-12-20T02:50:20;3.60;91.50
79760;DHT22;70512;42.122;24.732;2023-12-20T02:52:46;3.50;91.50
79760;DHT22;70512;42.122;24.732;2023-12-20T02:55:15;3.50;91.60
79760;DHT22;70512;42.122;24.732;2023-12-20T02:57:42;3.50;91.60
79760;DHT22;70512;42.122;24.732;2023-12-20T03:00:09;3.60;91.70
79760;DHT22;70512;42.122;24.732;2023-12-20T03:02:36;3.60;91.60
79760;DHT22;70512;42.122;24.732;2023-12-20T03:05:03;3.60;91.60
79760;DHT22;70512;42.122;24.732;2023-12-20T03:07:30;3.60;91.50
79760;DHT22;70512;42.122;24.732;2023-12-20T03:09:57;3.70;91.40
79760;DHT22;70512;42.122;24.732;2023-12-20T03:12:24;3.60;91.30
79760;DHT22;70512;42.122;24.732;2023-12-20T03:14:51;3.60;91.70
79760;DHT22;70512;42.122;24.732;2023-12-20T03:17:18;3.50;91.50
79760;DHT22;70512;42.122;24.732;2023-12-20T03:19:45;3.50;91.50
79760;DHT22;70512;42.122;24.732;2023-12-20T03:22:12;3.50;91.60
79760;DHT22;70512;42.122;24.732;2023-12-20T03:24:39;3.50;91.60
79760;DHT22;70512;42.122;24.732;2023-12-20T03:27:05;3.30;91.80
79760;DHT22;70512;42.122;24.732;2023-12-20T03:29:32;3.20;92.00
79760;DHT22;70512;42.122;24.732;2023-12-20T03:31:59;3.10;92.10
79760;DHT22;70512;42.122;24.732;2023-12-20T03:34:26;3.20;92.00
79760;DHT22;70512;42.122;24.732;2023-12-20T03:36:55;3.30;91.90
79760;DHT22;70512;42.122;24.732;2023-12-20T03:39:21;3.40;91.70
79760;DHT22;70512;42.122;24.732;2023-12-20T03:41:48;3.50;91.50
79760;DHT22;70512;42.122;24.732;2023-12-20T03:44:15;3.50;91.40
79760;DHT22;70512;42.122;24.732;2023-12-20T03:46:42;3.60;91.40
79760;DHT22;70512;42.122;24.732;2023-12-20T03:49:09;3.60;91.40
79760;DHT22;70512;42.122;24.732;2023-12-20T03:51:35;3.60;91.40
79760;DHT22;70512;42.122;24.732;2023-12-20T03:54:02;3.60;91.40
79760;DHT22;70512;42.122;24.732;2023-12-20T03:56:29;3.60;91.40
79760;DHT22;70512;42.122;24.732;2023-12-20T03:58:56;3.60;91.30
79760;DHT22;70512;42.122;24.732;2023-12-20T04:01:31;3.60;91.10
79760;DHT22;70512;42.122;24.732;2023-12-20T04:03:57;3.30;91.20
79760;DHT22;70512;42.122;24.732;2023-12-20T04:06:24;3.20;91.50
79760;DHT22;70512;42.122;24.732;2023-12-20T04:08:51;3.20;91.70
79760;DHT22;70512;42.122;24.732;2023-12-20T04:11:18;3.10;91.80
79760;DHT22;70512;42.122;24.732;2023-12-20T04:13:45;3.00;92.10
79760;DHT22;70512;42.122;24.732;2023-12-20T04:16:11;3.00;92.20
79760;DHT22;70512;42.122;24.732;2023-12-20T04:18:41;3.00;92.10
79760;DHT22;70512;42.122;24.732;2023-12-20T04:21:06;3.00;92.10
79760;DHT22;70512;42.122;24.732;2023-12-20T04:23:33;2.90;92.30
79760;DHT22;70512;42.122;24.732;2023-12-20T04:26:00;2.80;92.50
79760;DHT22;70512;42.122;24.732;2023-12-20T04:28:27;2.80;92.50
79760;DHT22;70512;42.122;24.732;2023-12-20T04:30:55;2.80;92.60
79760;DHT22;70512;42.122;24.732;2023-12-20T04:33:22;2.80;92.60
79760;DHT22;70512;42.122;24.732;2023-12-20T04:35:50;2.70;92.80
79760;DHT22;70512;42.122;24.732;2023-12-20T04:38:17;2.80;92.80
79760;DHT22;70512;42.122;24.732;2023-12-20T04:40:44;2.80;92.70
79760;DHT22;70512;42.122;24.732;2023-12-20T04:43:11;2.90;92.50
79760;DHT22;70512;42.122;24.732;2023-12-20T04:45:38;3.00;92.30
79760;DHT22;70512;42.122;24.732;2023-12-20T04:48:05;3.00;92.20
79760;DHT22;70512;42.122;24.732;2023-12-20T04:50:32;3.10;92.10
79760;DHT22;70512;42.122;24.732;2023-12-20T04:52:59;3.10;92.30
79760;DHT22;70512;42.122;24.732;2023-12-20T04:55:28;3.20;92.20
79760;DHT22;70512;42.122;24.732;2023-12-20T04:57:57;3.20;92.00
79760;DHT22;70512;42.122;24.732;2023-12-20T05:00:23;3.10;92.10
79760;DHT22;70512;42.122;24.732;2023-12-20T05:02:50;3.10;92.20
79760;DHT22;70512;42.122;24.732;2023-12-20T05:05:19;3.20;92.20
79760;DHT22;70512;42.122;24.732;2023-12-20T05:07:45;3.20;92.20
79760;DHT22;70512;42.122;24.732;2023-12-20T05:10:12;3.20;92.10
79760;DHT22;70512;42.122;24.732;2023-12-20T05:12:39;3.20;91.90
79760;DHT22;70512;42.122;24.732;2023-12-20T05:15:06;3.20;91.80
79760;DHT22;70512;42.122;24.732;2023-12-20T05:17:33;3.20;91.70
79760;DHT22;70512;42.122;24.732;2023-12-20T05:20:00;3.20;91.70
79760;DHT22;70512;42.122;24.732;2023-12-20T05:22:30;3.20;91.70
79760;DHT22;70512;42.122;24.732;2023-12-20T05:25:01;3.20;91.60
79760;DHT22;70512;42.122;24.732;2023-12-20T05:27:25;3.10;91.60
79760;DHT22;70512;42.122;24.732;2023-12-20T05:29:52;3.10;91.70
79760;DHT22;70512;42.122;24.732;2023-12-20T05:32:19;3.10;91.80
79760;DHT22;70512;42.122;24.732;2023-12-20T05:34:45;3.00;91.70
79760;DHT22;70512;42.122;24.732;2023-12-20T05:37:12;2.90;91.80
79760;DHT22;70512;42.122;24.732;2023-12-20T05:39:41;2.80;92.00
79760;DHT22;70512;42.122;24.732;2023-12-20T05:42:07;2.90;92.00
79760;DHT22;70512;42.122;24.732;2023-12-20T05:44:36;2.90;92.00
79760;DHT22;70512;42.122;24.732;2023-12-20T05:47:03;3.00;91.90
79760;DHT22;70512;42.122;24.732;2023-12-20T05:49:30;3.00;91.90
79760;DHT22;70512;42.122;24.732;2023-12-20T05:51:57;3.10;91.80
79760;DHT22;70512;42.122;24.732;2023-12-20T05:54:24;3.10;91.70
79760;DHT22;70512;42.122;24.732;2023-12-20T05:56:51;3.20;91.70
79760;DHT22;70512;42.122;24.732;2023-12-20T05:59:17;3.10;91.50
79760;DHT22;70512;42.122;24.732;2023-12-20T06:01:44;3.10;91.50
79760;DHT22;70512;42.122;24.732;2023-12-20T06:04:11;3.10;91.70
79760;DHT22;70512;42.122;24.732;2023-12-20T06:06:41;3.10;91.40
79760;DHT22;70512;42.122;24.732;2023-12-20T06:09:08;3.10;91.40
79760;DHT22;70512;42.122;24.732;2023-12-20T06:11:35;3.00;91.50
79760;DHT22;70512;42.122;24.732;2023-12-20T06:14:02;3.10;91.40
79760;DHT22;70512;42.122;24.732;2023-12-20T06:16:29;3.10;91.30
79760;DHT22;70512;42.122;24.732;2023-12-20T06:18:56;3.20;91.30
79760;DHT22;70512;42.122;24.732;2023-12-20T06:21:23;3.20;91.10
79760;DHT22;70512;42.122;24.732;2023-12-20T06:23:50;3.20;91.00
79760;DHT22;70512;42.122;24.732;2023-12-20T06:26:16;3.20;91.00
79760;DHT22;70512;42.122;24.732;2023-12-20T06:28:43;3.20;91.00
79760;DHT22;70512;42.122;24.732;2023-12-20T06:31:10;3.30;90.90
79760;DHT22;70512;42.122;24.732;2023-12-20T06:33:37;3.30;90.60
79760;DHT22;70512;42.122;24.732;2023-12-20T06:36:06;3.40;90.50
79760;DHT22;70512;42.122;24.732;2023-12-20T06:38:33;3.30;90.30
79760;DHT22;70512;42.122;24.732;2023-12-20T06:41:00;3.30;90.30
79760;DHT22;70512;42.122;24.732;2023-12-20T06:43:27;3.30;90.30
79760;DHT22;70512;42.122;24.732;2023-12-20T06:45:55;3.30;90.30
79760;DHT22;70512;42.122;24.732;2023-12-20T06:48:22;3.30;90.50
79760;DHT22;70512;42.122;24.732;2023-12-20T06:50:49;3.30;90.30
79760;DHT22;70512;42.122;24.732;2023-12-20T06:53:16;3.40;90.30
79760;DHT22;70512;42.122;24.732;2023-12-20T06:55:43;3.40;90.20
79760;DHT22;70512;42.122;24.732;2023-12-20T06:58:09;3.50;90.20
79760;DHT22;70512;42.122;24.732;2023-12-20T07:00:36;3.50;90.10
79760;DHT22;70512;42.122;24.732;2023-12-20T07:03:05;3.60;90.10
79760;DHT22;70512;42.122;24.732;2023-12-20T07:05:33;3.70;90.00
79760;DHT22;70512;42.122;24.732;2023-12-20T07:08:00;3.70;90.20
79760;DHT22;70512;42.122;24.732;2023-12-20T07:10:29;3.80;89.60
79760;DHT22;70512;42.122;24.732;2023-12-20T07:12:55;3.90;89.60
79760;DHT22;70512;42.122;24.732;2023-12-20T07:15:22;3.90;89.20
79760;DHT22;70512;42.122;24.732;2023-12-20T07:17:54;4.00;89.10
79760;DHT22;70512;42.122;24.732;2023-12-20T07:20:17;4.10;88.90
79760;DHT22;70512;42.122;24.732;2023-12-20T07:22:44;4.10;88.80
79760;DHT22;70512;42.122;24.732;2023-12-20T07:25:11;4.20;88.70
79760;DHT22;70512;42.122;24.732;2023-12-20T07:27:38;4.40;88.40
79760;DHT22;70512;42.122;24.732;2023-12-20T07:30:06;4.50;87.60
79760;DHT22;70512;42.122;24.732;2023-12-20T07:32:33;4.60;86.70
79760;DHT22;70512;42.122;24.732;2023-12-20T07:34:59;4.70;86.50
79760;DHT22;70512;42.122;24.732;2023-12-20T07:37:26;4.80;86.60
79760;DHT22;70512;42.122;24.732;2023-12-20T07:39:53;4.80;85.30
79760;DHT22;70512;42.122;24.732;2023-12-20T07:42:20;4.90;85.10
79760;DHT22;70512;42.122;24.732;2023-12-20T07:44:48;4.90;84.60
79760;DHT22;70512;42.122;24.732;2023-12-20T07:47:15;5.00;84.50
79760;DHT22;70512;42.122;24.732;2023-12-20T07:49:44;5.00;84.20
79760;DHT22;70512;42.122;24.732;2023-12-20T07:52:11;5.00;84.60
79760;DHT22;70512;42.122;24.732;2023-12-20T07:54:38;5.10;84.40
79760;DHT22;70512;42.122;24.732;2023-12-20T07:57:04;5.20;83.70
79760;DHT22;70512;42.122;24.732;2023-12-20T07:59:31;5.40;83.10
79760;DHT22;70512;42.122;24.732;2023-12-20T08:01:58;5.50;82.60
79760;DHT22;70512;42.122;24.732;2023-12-20T08:04:25;5.60;81.50
79760;DHT22;70512;42.122;24.732;2023-12-20T08:06:52;5.60;81.60
79760;DHT22;70512;42.122;24.732;2023-12-20T08:09:19;5.60;81.80
79760;DHT22;70512;42.122;24.732;2023-12-20T08:11:46;5.70;81.50
79760;DHT22;70512;42.122;24.732;2023-12-20T08:14:13;5.80;81.50
79760;DHT22;70512;42.122;24.732;2023-12-20T08:16:40;5.90;81.40
79760;DHT22;70512;42.122;24.732;2023-12-20T08:19:07;6.00;80.90
79760;DHT22;70512;42.122;24.732;2023-12-20T08:21:34;6.10;80.60
79760;DHT22;70512;42.122;24.732;2023-12-20T08:24:01;6.30;80.20
79760;DHT22;70512;42.122;24.732;2023-12-20T08:26:28;6.50;79.50
79760;DHT22;70512;42.122;24.732;2023-12-20T08:28:58;6.60;78.60
79760;DHT22;70512;42.122;24.732;2023-12-20T08:31:25;6.70;78.00
79760;DHT22;70512;42.122;24.732;2023-12-20T08:33:52;6.90;77.60
79760;DHT22;70512;42.122;24.732;2023-12-20T08:36:19;7.00;77.20
79760;DHT22;70512;42.122;24.732;2023-12-20T08:38:48;7.20;76.70
79760;DHT22;70512;42.122;24.732;2023-12-20T08:41:16;7.30;76.10
79760;DHT22;70512;42.122;24.732;2023-12-20T08:43:43;7.40;74.90
79760;DHT22;70512;42.122;24.732;2023-12-20T08:46:10;7.50;74.90
79760;DHT22;70512;42.122;24.732;2023-12-20T08:48:37;7.60;74.40
79760;DHT22;70512;42.122;24.732;2023-12-20T08:51:04;7.60;74.60
79760;DHT22;70512;42.122;24.732;2023-12-20T08:53:33;7.60;74.60
79760;DHT22;70512;42.122;24.732;2023-12-20T08:55:59;7.50;75.00
79760;DHT22;70512;42.122;24.732;2023-12-20T08:58:28;7.50;75.40
79760;DHT22;70512;42.122;24.732;2023-12-20T09:00:55;7.40;75.50
79760;DHT22;70512;42.122;24.732;2023-12-20T09:03:23;7.50;75.40
79760;DHT22;70512;42.122;24.732;2023-12-20T09:05:50;7.60;75.30
79760;DHT22;70512;42.122;24.732;2023-12-20T09:08:17;7.80;75.00
79760;DHT22;70512;42.122;24.732;2023-12-20T09:10:43;8.00;74.20
79760;DHT22;70512;42.122;24.732;2023-12-20T09:13:11;8.20;73.30
79760;DHT22;70512;42.122;24.732;2023-12-20T09:15:37;8.50;72.00
79760;DHT22;70512;42.122;24.732;2023-12-20T09:18:04;8.70;71.70
79760;DHT22;70512;42.122;24.732;2023-12-20T09:20:31;8.80;70.70
79760;DHT22;70512;42.122;24.732;2023-12-20T09:22:58;9.00;70.40
79760;DHT22;70512;42.122;24.732;2023-12-20T09:25:25;9.10;69.90
79760;DHT22;70512;42.122;24.732;2023-12-20T09:27:52;9.10;69.80
79760;DHT22;70512;42.122;24.732;2023-12-20T09:30:19;9.20;68.90
79760;DHT22;70512;42.122;24.732;2023-12-20T09:32:46;9.20;68.90
79760;DHT22;70512;42.122;24.732;2023-12-20T09:35:13;9.20;68.50
79760;DHT22;70512;42.122;24.732;2023-12-20T09:37:40;9.10;67.80
79760;DHT22;70512;42.122;24.732;2023-12-20T09:40:09;8.90;69.30
79760;DHT22;70512;42.122;24.732;2023-12-20T09:42:46;8.80;69.80
79760;DHT22;70512;42.122;24.732;2023-12-20T09:45:11;8.60;70.10
79760;DHT22;70512;42.122;24.732;2023-12-20T09:47:39;8.70;70.20
79760;DHT22;70512;42.122;24.732;2023-12-20T09:50:08;8.70;70.20
79760;DHT22;70512;42.122;24.732;2023-12-20T09:52:36;8.70;69.20
79760;DHT22;70512;42.122;24.732;2023-12-20T09:55:03;8.80;68.60
79760;DHT22;70512;42.122;24.732;2023-12-20T09:57:32;8.70;68.80
79760;DHT22;70512;42.122;24.732;2023-12-20T09:59:59;8.60;69.20
79760;DHT22;70512;42.122;24.732;2023-12-20T10:02:26;8.80;69.20
79760;DHT22;70512;42.122;24.732;2023-12-20T10:04:54;8.90;68.30
79760;DHT22;70512;42.122;24.732;2023-12-20T10:07:21;9.10;68.30
79760;DHT22;70512;42.122;24.732;2023-12-20T10:09:48;9.20;66.50
79760;DHT22;70512;42.122;24.732;2023-12-20T10:12:18;9.40;66.30
79760;DHT22;70512;42.122;24.732;2023-12-20T10:14:45;9.50;65.70
79760;DHT22;70512;42.122;24.732;2023-12-20T10:17:12;9.60;64.70
79760;DHT22;70512;42.122;24.732;2023-12-20T10:19:39;9.80;64.50
79760;DHT22;70512;42.122;24.732;2023-12-20T10:22:06;10.00;64.10
79760;DHT22;70512;42.122;24.732;2023-12-20T10:24:33;10.00;63.00
79760;DHT22;70512;42.122;24.732;2023-12-20T10:27:06;10.20;62.90
79760;DHT22;70512;42.122;24.732;2023-12-20T10:29:35;10.30;63.10
79760;DHT22;70512;42.122;24.732;2023-12-20T10:32:21;10.30;62.60
79760;DHT22;70512;42.122;24.732;2023-12-20T10:34:33;10.30;62.50
79760;DHT22;70512;42.122;24.732;2023-12-20T10:37:00;10.60;61.50
79760;DHT22;70512;42.122;24.732;2023-12-20T10:39:27;10.90;60.10
79760;DHT22;70512;42.122;24.732;2023-12-20T10:41:54;11.30;59.60
79760;DHT22;70512;42.122;24.732;2023-12-20T10:44:21;12.50;56.90
79760;DHT22;70512;42.122;24.732;2023-12-20T10:46:48;14.00;52.30
79760;DHT22;70512;42.122;24.732;2023-12-20T10:49:16;15.30;47.80
79760;DHT22;70512;42.122;24.732;2023-12-20T10:51:44;16.50;44.50
79760;DHT22;70512;42.122;24.732;2023-12-20T10:54:11;17.70;41.80
79760;DHT22;70512;42.122;24.732;2023-12-20T10:56:38;18.80;39.20
79760;DHT22;70512;42.122;24.732;2023-12-20T10:59:05;19.80;36.40
79760;DHT22;70512;42.122;24.732;2023-12-20T11:01:34;20.10;35.40
79760;DHT22;70512;42.122;24.732;2023-12-20T11:04:01;20.20;34.10
79760;DHT22;70512;42.122;24.732;2023-12-20T11:09:04;19.10;35.40
79760;DHT22;70512;42.122;24.732;2023-12-20T11:11:40;18.70;37.00
79760;DHT22;70512;42.122;24.732;2023-12-20T11:14:06;18.10;37.30
79760;DHT22;70512;42.122;24.732;2023-12-20T11:16:37;18.30;36.90
79760;DHT22;70512;42.122;24.732;2023-12-20T11:19:05;18.80;37.50
79760;DHT22;70512;42.122;24.732;2023-12-20T11:21:34;18.90;36.10
79760;DHT22;70512;42.122;24.732;2023-12-20T11:24:01;18.50;35.90
79760;DHT22;70512;42.122;24.732;2023-12-20T11:26:29;18.20;36.90
79760;DHT22;70512;42.122;24.732;2023-12-20T11:31:41;18.00;37.70
79760;DHT22;70512;42.122;24.732;2023-12-20T11:34:14;18.00;37.50
79760;DHT22;70512;42.122;24.732;2023-12-20T11:36:40;17.90;37.60
79760;DHT22;70512;42.122;24.732;2023-12-20T11:39:07;17.20;39.10
79760;DHT22;70512;42.122;24.732;2023-12-20T11:41:36;16.30;41.00
79760;DHT22;70512;42.122;24.732;2023-12-20T11:44:04;16.30;41.10
79760;DHT22;70512;42.122;24.732;2023-12-20T11:46:31;16.60;41.50
79760;DHT22;70512;42.122;24.732;2023-12-20T11:49:00;17.00;41.20
79760;DHT22;70512;42.122;24.732;2023-12-20T11:51:27;17.30;40.20
79760;DHT22;70512;42.122;24.732;2023-12-20T11:53:54;17.50;38.70
79760;DHT22;70512;42.122;24.732;2023-12-20T11:56:20;17.90;38.60
79760;DHT22;70512;42.122;24.732;2023-12-20T11:58:47;18.60;37.70
79760;DHT22;70512;42.122;24.732;2023-12-20T12:01:14;19.50;35.80
79760;DHT22;70512;42.122;24.732;2023-12-20T12:03:41;20.10;34.40
79760;DHT22;70512;42.122;24.732;2023-12-20T12:06:09;20.40;33.60
79760;DHT22;70512;42.122;24.732;2023-12-20T12:08:35;20.00;33.70
79760;DHT22;70512;42.122;24.732;2023-12-20T12:11:03;19.50;34.30
79760;DHT22;70512;42.122;24.732;2023-12-20T12:13:30;19.00;35.50
79760;DHT22;70512;42.122;24.732;2023-12-20T12:15:57;18.50;37.10
79760;DHT22;70512;42.122;24.732;2023-12-20T12:18:25;18.20;38.00
79760;DHT22;70512;42.122;24.732;2023-12-20T12:20:59;17.70;37.90
79760;DHT22;70512;42.122;24.732;2023-12-20T12:23:23;17.10;39.30
79760;DHT22;70512;42.122;24.732;2023-12-20T12:25:50;16.90;40.50
79760;DHT22;70512;42.122;24.732;2023-12-20T12:28:17;16.60;41.30
79760;DHT22;70512;42.122;24.732;2023-12-20T12:30:55;16.40;41.20
79760;DHT22;70512;42.122;24.732;2023-12-20T12:33:12;16.30;41.60
79760;DHT22;70512;42.122;24.732;2023-12-20T12:35:40;16.40;41.90
79760;DHT22;70512;42.122;24.732;2023-12-20T12:38:07;16.50;42.10
79760;DHT22;70512;42.122;24.732;2023-12-20T12:40:34;16.50;42.30
79760;DHT22;70512;42.122;24.732;2023-12-20T12:43:02;16.50;42.60
79760;DHT22;70512;42.122;24.732;2023-12-20T12:45:30;16.40;43.50
79760;DHT22;70512;42.122;24.732;2023-12-20T12:47:57;16.20;43.90
79760;DHT22;70512;42.122;24.732;2023-12-20T12:50:24;16.10;44.50
79760;DHT22;70512;42.122;24.732;2023-12-20T12:52:50;16.10;45.20
79760;DHT22;70512;42.122;24.732;2023-12-20T12:55:17;16.10;45.10
79760;DHT22;70512;42.122;24.732;2023-12-20T12:57:44;16.20;45.50
79760;DHT22;70512;42.122;24.732;2023-12-20T13:00:12;16.10;45.30
79760;DHT22;70512;42.122;24.732;2023-12-20T13:02:39;16.10;46.30
79760;DHT22;70512;42.122;24.732;2023-12-20T13:05:12;16.00;45.80
79760;DHT22;70512;42.122;24.732;2023-12-20T13:07:39;15.90;46.40
79760;DHT22;70512;42.122;24.732;2023-12-20T13:10:06;15.80;46.30
79760;DHT22;70512;42.122;24.732;2023-12-20T13:12:33;15.70;46.20
79760;DHT22;70512;42.122;24.732;2023-12-20T13:15:00;15.60;45.80
79760;DHT22;70512;42.122;24.732;2023-12-20T13:17:27;15.50;46.20
79760;DHT22;70512;42.122;24.732;2023-12-20T13:19:54;15.40;46.40
79760;DHT22;70512;42.122;24.732;2023-12-20T13:22:21;15.30;45.50
79760;DHT22;70512;42.122;24.732;2023-12-20T13:24:47;15.20;46.20
79760;DHT22;70512;42.122;24.732;2023-12-20T13:27:14;15.00;46.40
79760;DHT22;70512;42.122;24.732;2023-12-20T13:29:41;14.80;47.30
79760;DHT22;70512;42.122;24.732;2023-12-20T13:32:08;14.70;47.80
79760;DHT22;70512;42.122;24.732;2023-12-20T13:34:35;14.60;48.60
79760;DHT22;70512;42.122;24.732;2023-12-20T13:37:02;14.50;50.00
79760;DHT22;70512;42.122;24.732;2023-12-20T13:39:30;14.30;50.30
79760;DHT22;70512;42.122;24.732;2023-12-20T13:41:57;14.30;51.00
79760;DHT22;70512;42.122;24.732;2023-12-20T13:44:24;14.20;51.50
79760;DHT22;70512;42.122;24.732;2023-12-20T13:46:56;14.10;51.90
79760;DHT22;70512;42.122;24.732;2023-12-20T13:49:20;13.90;52.30
79760;DHT22;70512;42.122;24.732;2023-12-20T13:51:52;13.70;52.70
79760;DHT22;70512;42.122;24.732;2023-12-20T13:54:15;13.60;53.50
79760;DHT22;70512;42.122;24.732;2023-12-20T13:56:44;13.50;53.80
79760;DHT22;70512;42.122;24.732;2023-12-20T13:59:10;13.30;54.70
79760;DHT22;70512;42.122;24.732;2023-12-20T14:01:41;13.20;55.30
79760;DHT22;70512;42.122;24.732;2023-12-20T14:04:06;13.10;55.80
79760;DHT22;70512;42.122;24.732;2023-12-20T14:06:35;13.00;56.10
79760;DHT22;70512;42.122;24.732;2023-12-20T14:09:02;12.90;56.60
79760;DHT22;70512;42.122;24.732;2023-12-20T14:11:29;12.80;56.70
79760;DHT22;70512;42.122;24.732;2023-12-20T14:13:56;12.70;57.00
79760;DHT22;70512;42.122;24.732;2023-12-20T14:16:24;12.60;57.30
79760;DHT22;70512;42.122;24.732;2023-12-20T14:18:51;12.50;57.80
79760;DHT22;70512;42.122;24.732;2023-12-20T14:21:22;12.40;58.10
79760;DHT22;70512;42.122;24.732;2023-12-20T14:23:49;12.30;58.60
79760;DHT22;70512;42.122;24.732;2023-12-20T14:26:17;12.20;59.00
79760;DHT22;70512;42.122;24.732;2023-12-20T14:28:44;12.00;59.70
79760;DHT22;70512;42.122;24.732;2023-12-20T14:31:11;12.00;60.10
79760;DHT22;70512;42.122;24.732;2023-12-20T14:33:38;11.90;60.20
79760;DHT22;70512;42.122;24.732;2023-12-20T14:36:05;11.70;60.50
79760;DHT22;70512;42.122;24.732;2023-12-20T14:38:32;11.60;61.10
79760;DHT22;70512;42.122;24.732;2023-12-20T14:40:59;11.40;61.90
79760;DHT22;70512;42.122;24.732;2023-12-20T14:43:26;11.30;62.30
79760;DHT22;70512;42.122;24.732;2023-12-20T14:45:53;11.20;62.80
79760;DHT22;70512;42.122;24.732;2023-12-20T14:48:20;11.10;63.40
79760;DHT22;70512;42.122;24.732;2023-12-20T14:50:47;11.00;63.90
79760;DHT22;70512;42.122;24.732;2023-12-20T14:53:15;10.80;64.30
79760;DHT22;70512;42.122;24.732;2023-12-20T14:55:42;10.70;65.10
79760;DHT22;70512;42.122;24.732;2023-12-20T14:58:09;10.60;65.30
79760;DHT22;70512;42.122;24.732;2023-12-20T15:00:36;10.50;65.50
79760;DHT22;70512;42.122;24.732;2023-12-20T15:03:03;10.40;66.10
79760;DHT22;70512;42.122;24.732;2023-12-20T15:05:31;10.30;66.70
79760;DHT22;70512;42.122;24.732;2023-12-20T15:07:57;10.30;67.10
79760;DHT22;70512;42.122;24.732;2023-12-20T15:10:24;10.20;67.40
79760;DHT22;70512;42.122;24.732;2023-12-20T15:12:51;10.10;67.90
79760;DHT22;70512;42.122;24.732;2023-12-20T15:15:19;10.10;68.10
79760;DHT22;70512;42.122;24.732;2023-12-20T15:17:46;10.10;68.60
79760;DHT22;70512;42.122;24.732;2023-12-20T15:20:13;10.00;68.90
79760;DHT22;70512;42.122;24.732;2023-12-20T15:22:40;10.00;69.10
79760;DHT22;70512;42.122;24.732;2023-12-20T15:25:07;10.00;69.20
79760;DHT22;70512;42.122;24.732;2023-12-20T15:27:34;9.90;69.50
79760;DHT22;70512;42.122;24.732;2023-12-20T15:30:04;9.90;69.70